Marigot, Dominica
Current Conditions -  °F | °C
As of 1:00 PM on Sunday 23 Nov 2014 (Local Time) from TDPD Reporting Station
Broken Clouds Broken Clouds  
Wind Chill: 82°   Ceiling: 1800
Heat Index: 88°   Visibility: 6mi
Dew Point: 73°   Wind: 9mph
Humidity: 74%   Direction: 110°ESE
Pressure: 30"   Gusts: 26mph
Location:  15.53°N, 61.29°W
Report Text: TDPD 231700Z 11008G23KT 9999 BKN018 FEW///CB 28/23 Q1016
Loading
Personal Weather Stations






























Interactive Weather Map New forecast layout! Learn more

10-Day Weather Forecast

Advertisements
Track Severe Weather on mobile